createdAt,value
2019-05-29T00:03:22.460Z,15.53
2019-05-29T00:13:29.341Z,17.30
2019-05-29T00:23:34.772Z,18.40
2019-05-29T00:33:41.938Z,16.13
2019-05-29T00:43:47.613Z,12.27
2019-05-29T00:53:53.178Z,20.63
2019-05-29T01:03:58.700Z,14.93
2019-05-29T01:14:04.271Z,15.90
2019-05-29T01:24:09.772Z,21.60
2019-05-29T01:34:15.646Z,21.47
2019-05-29T01:44:21.446Z,17.80
2019-05-29T01:54:27.983Z,20.43
2019-05-29T02:04:34.410Z,18.93
2019-05-29T02:14:39.710Z,23.60
2019-05-29T02:24:45.213Z,18.70
2019-05-29T02:34:50.690Z,19.87
2019-05-29T02:44:57.418Z,18.37
2019-05-29T02:55:02.923Z,17.70
2019-05-29T03:05:09.371Z,15.20
2019-05-29T03:15:14.943Z,14.40
2019-05-29T03:25:20.482Z,12.40
2019-05-29T03:35:28.205Z,19.27
2019-05-29T03:45:35.686Z,27.13
2019-05-29T03:55:40.851Z,16.03
2019-05-29T04:05:46.327Z,7.73
2019-05-29T04:15:53.542Z,7.10
2019-05-29T04:26:02.335Z,8.70
2019-05-29T04:36:08.026Z,9.47
2019-05-29T04:46:13.581Z,10.53
2019-05-29T04:56:19.208Z,10.73
2019-05-29T05:06:25.015Z,10.20
2019-05-29T05:16:31.701Z,13.83
2019-05-29T05:26:38.411Z,13.00
2019-05-29T05:36:44.095Z,13.77
2019-05-29T05:46:50.828Z,16.40
2019-05-29T05:56:57.320Z,16.70
2019-05-29T06:07:02.893Z,16.70
2019-05-29T06:17:08.522Z,17.50
2019-05-29T06:27:14.026Z,14.97
2019-05-29T06:37:19.652Z,14.10
2019-05-29T06:47:25.418Z,12.87
2019-05-29T06:57:30.977Z,12.10
2019-05-29T07:07:37.819Z,12.27
2019-05-29T07:17:45.029Z,12.03
2019-05-29T07:27:55.327Z,10.93
2019-05-29T07:38:01.290Z,9.30
2019-05-29T07:48:06.939Z,9.57
2019-05-29T07:58:12.505Z,9.20
2019-05-29T08:08:18.064Z,9.80
2019-05-29T08:18:23.637Z,9.27
2019-05-29T08:28:29.221Z,8.40
2019-05-29T08:38:34.853Z,7.37
2019-05-29T08:48:41.663Z,7.63
2019-05-29T08:58:48.395Z,6.27
2019-05-29T09:08:54.990Z,6.03
2019-05-29T09:19:00.911Z,6.57
2019-05-29T09:29:06.461Z,6.10
2019-05-29T09:39:12.034Z,4.93
2019-05-29T09:49:18.401Z,5.13
2019-05-29T09:59:24.079Z,4.10
2019-05-29T10:09:29.620Z,5.43
2019-05-29T10:19:35.133Z,7.47
2019-05-29T10:29:40.732Z,8.93
2019-05-29T10:39:46.817Z,12.40
2019-05-29T10:49:53.860Z,9.77
2019-05-29T10:59:59.576Z,9.40
2019-05-29T11:10:08.351Z,6.27
2019-05-29T11:20:14.292Z,4.37
2019-05-29T11:30:20.092Z,4.77
2019-05-29T11:40:25.745Z,4.20
2019-05-29T11:50:31.333Z,3.87
2019-05-29T12:00:38.294Z,5.00
2019-05-29T12:10:43.981Z,5.40
2019-05-29T12:20:49.493Z,4.30
2019-05-29T12:30:55.240Z,4.87
2019-05-29T12:41:01.774Z,4.70
2019-05-29T12:51:07.493Z,11.93
2019-05-29T13:01:14.431Z,4.73
2019-05-29T13:11:19.972Z,3.80
2019-05-29T13:21:25.424Z,4.93
2019-05-29T13:31:30.974Z,4.27
2019-05-29T13:41:36.590Z,6.57
2019-05-29T13:51:42.094Z,6.93
2019-05-29T14:01:48.786Z,4.80
2019-05-29T14:11:54.813Z,7.90
2019-05-29T14:22:01.127Z,6.20
2019-05-29T14:32:07.388Z,5.50
2019-05-29T14:42:13.372Z,4.83
2019-05-29T14:52:20.461Z,17.17
2019-05-29T15:02:26.123Z,16.30
2019-05-29T15:12:31.653Z,6.33
2019-05-29T15:22:37.154Z,3.23
2019-05-29T15:32:42.809Z,6.73
2019-05-29T15:42:49.459Z,4.10
2019-05-29T15:52:54.946Z,3.00
2019-05-29T16:03:00.452Z,4.00
2019-05-29T16:13:06.036Z,6.07
2019-05-29T16:23:13.927Z,4.23
2019-05-29T16:33:19.492Z,4.50
2019-05-29T16:43:26.014Z,5.03
2019-05-29T16:53:32.539Z,8.03
2019-05-29T17:03:38.409Z,8.90
2019-05-29T17:13:44.131Z,5.20
2019-05-29T17:23:49.733Z,6.17
2019-05-29T17:33:55.453Z,4.53
2019-05-29T17:44:01.570Z,3.67
2019-05-29T17:54:08.613Z,3.70
2019-05-29T18:04:14.473Z,4.63
2019-05-29T18:14:21.396Z,5.33
2019-05-29T18:24:28.068Z,4.90
2019-05-29T18:34:33.981Z,5.87
2019-05-29T18:44:39.698Z,6.27
2019-05-29T18:54:45.511Z,6.57
2019-05-29T19:04:51.177Z,7.50
2019-05-29T19:14:56.987Z,9.97
2019-05-29T19:25:02.854Z,9.53
2019-05-29T19:35:10.832Z,8.83
2019-05-29T19:45:16.254Z,8.63
2019-05-29T19:55:21.382Z,7.40
2019-05-29T20:05:26.814Z,6.73
2019-05-29T20:15:32.533Z,6.00
2019-05-29T20:25:39.048Z,5.27
2019-05-29T20:35:44.652Z,5.27
2019-05-29T20:45:50.255Z,4.20
2019-05-29T20:55:55.779Z,4.80
2019-05-29T21:06:00.993Z,4.83
2019-05-29T21:16:06.415Z,5.47
2019-05-29T21:26:12.017Z,6.00
2019-05-29T21:36:18.575Z,5.90
2019-05-29T21:46:24.132Z,5.60
2019-05-29T21:56:29.711Z,6.27
2019-05-29T22:06:35.252Z,6.73
2019-05-29T22:16:40.773Z,5.00
2019-05-29T22:26:46.452Z,4.80
2019-05-29T22:36:55.440Z,4.90
2019-05-29T22:47:01.931Z,4.13
2019-05-29T22:57:07.619Z,5.00
2019-05-29T23:07:14.893Z,4.83
2019-05-29T23:17:20.191Z,5.27
2019-05-29T23:27:25.663Z,6.23
2019-05-29T23:37:31.596Z,5.63
2019-05-29T23:47:36.885Z,5.03
2019-05-29T23:57:42.414Z,4.27
